sensor_id;sensor_type;location;lat;lon;timestamp;pressure;altitude;pressure_sealevel;temperature;humidity
80568;BME280;69922;45.656;25.586;2023-05-07T00:00:56;95425.73;;;10.31;63.32
80568;BME280;69922;45.656;25.586;2023-05-07T00:02:05;95427.63;;;10.32;62.92
80568;BME280;69922;45.656;25.586;2023-05-07T00:03:11;95420.92;;;10.32;62.88
80568;BME280;69922;45.656;25.586;2023-05-07T00:04:17;95421.52;;;10.33;62.84
80568;BME280;69922;45.656;25.586;2023-05-07T00:05:24;95419.51;;;10.35;62.58
80568;BME280;69922;45.656;25.586;2023-05-07T00:06:31;95418.85;;;10.37;62.47
80568;BME280;69922;45.656;25.586;2023-05-07T00:07:38;95416.16;;;10.39;62.50
80568;BME280;69922;45.656;25.586;2023-05-07T00:08:44;95413.89;;;10.41;62.63
80568;BME280;69922;45.656;25.586;2023-05-07T00:09:51;95415.63;;;10.43;62.06
80568;BME280;69922;45.656;25.586;2023-05-07T00:10:57;95417.02;;;10.44;62.05
80568;BME280;69922;45.656;25.586;2023-05-07T00:12:03;95415.95;;;10.45;62.20
80568;BME280;69922;45.656;25.586;2023-05-07T00:13:09;95415.70;;;10.46;62.38
80568;BME280;69922;45.656;25.586;2023-05-07T00:14:15;95414.73;;;10.45;62.43
80568;BME280;69922;45.656;25.586;2023-05-07T00:15:22;95412.42;;;10.44;62.51
80568;BME280;69922;45.656;25.586;2023-05-07T00:16:28;95414.38;;;10.43;62.57
80568;BME280;69922;45.656;25.586;2023-05-07T00:17:35;95414.21;;;10.41;62.33
80568;BME280;69922;45.656;25.586;2023-05-07T00:18:41;95413.92;;;10.40;62.22
80568;BME280;69922;45.656;25.586;2023-05-07T00:19:47;95413.81;;;10.38;62.30
80568;BME280;69922;45.656;25.586;2023-05-07T00:20:54;95413.48;;;10.36;62.31
80568;BME280;69922;45.656;25.586;2023-05-07T00:22:00;95413.27;;;10.33;62.77
80568;BME280;69922;45.656;25.586;2023-05-07T00:23:07;95412.56;;;10.32;62.45
80568;BME280;69922;45.656;25.586;2023-05-07T00:24:13;95412.23;;;10.30;62.39
80568;BME280;69922;45.656;25.586;2023-05-07T00:25:21;95411.44;;;10.27;62.38
80568;BME280;69922;45.656;25.586;2023-05-07T00:26:27;95411.36;;;10.26;62.89
80568;BME280;69922;45.656;25.586;2023-05-07T00:27:33;95411.89;;;10.24;63.02
80568;BME280;69922;45.656;25.586;2023-05-07T00:28:39;95408.98;;;10.21;62.76
80568;BME280;69922;45.656;25.586;2023-05-07T00:29:46;95400.13;;;10.18;62.41
80568;BME280;69922;45.656;25.586;2023-05-07T00:30:52;95400.02;;;10.18;60.89
80568;BME280;69922;45.656;25.586;2023-05-07T00:31:58;95399.67;;;10.20;61.74
80568;BME280;69922;45.656;25.586;2023-05-07T00:33:05;95400.35;;;10.20;62.30
80568;BME280;69922;45.656;25.586;2023-05-07T00:34:11;95401.98;;;10.18;63.02
80568;BME280;69922;45.656;25.586;2023-05-07T00:35:17;95399.53;;;10.16;62.90
80568;BME280;69922;45.656;25.586;2023-05-07T00:36:24;95394.95;;;10.13;62.89
80568;BME280;69922;45.656;25.586;2023-05-07T00:37:32;95393.16;;;10.11;62.38
80568;BME280;69922;45.656;25.586;2023-05-07T00:38:38;95392.48;;;10.10;62.13
80568;BME280;69922;45.656;25.586;2023-05-07T00:39:44;95392.10;;;10.10;62.40
80568;BME280;69922;45.656;25.586;2023-05-07T00:40:51;95396.70;;;10.10;62.10
80568;BME280;69922;45.656;25.586;2023-05-07T00:41:57;95401.15;;;10.10;62.52
80568;BME280;69922;45.656;25.586;2023-05-07T00:43:03;95399.95;;;10.08;63.07
80568;BME280;69922;45.656;25.586;2023-05-07T00:44:09;95397.51;;;10.05;63.23
80568;BME280;69922;45.656;25.586;2023-05-07T00:45:16;95398.06;;;10.03;63.00
80568;BME280;69922;45.656;25.586;2023-05-07T00:46:24;95397.92;;;10.00;63.13
80568;BME280;69922;45.656;25.586;2023-05-07T00:47:31;95395.79;;;9.98;63.08
80568;BME280;69922;45.656;25.586;2023-05-07T00:48:37;95397.86;;;9.96;63.08
80568;BME280;69922;45.656;25.586;2023-05-07T00:49:44;95395.52;;;9.94;62.91
80568;BME280;69922;45.656;25.586;2023-05-07T00:50:52;95392.95;;;9.92;63.02
80568;BME280;69922;45.656;25.586;2023-05-07T00:51:58;95394.90;;;9.91;62.95
80568;BME280;69922;45.656;25.586;2023-05-07T00:53:06;95392.89;;;9.88;63.25
80568;BME280;69922;45.656;25.586;2023-05-07T00:54:12;95391.86;;;9.86;63.53
80568;BME280;69922;45.656;25.586;2023-05-07T00:55:19;95388.88;;;9.83;63.59
80568;BME280;69922;45.656;25.586;2023-05-07T00:56:27;95387.98;;;9.80;63.20
80568;BME280;69922;45.656;25.586;2023-05-07T00:57:34;95388.73;;;9.78;63.33
80568;BME280;69922;45.656;25.586;2023-05-07T00:58:42;95386.67;;;9.76;63.45
80568;BME280;69922;45.656;25.586;2023-05-07T00:59:49;95389.73;;;9.74;63.61
80568;BME280;69922;45.656;25.586;2023-05-07T01:00:57;95389.89;;;9.72;63.67
80568;BME280;69922;45.656;25.586;2023-05-07T01:02:04;95386.22;;;9.70;63.51
80568;BME280;69922;45.656;25.586;2023-05-07T01:03:10;95384.55;;;9.70;63.61
80568;BME280;69922;45.656;25.586;2023-05-07T01:04:17;95385.67;;;9.69;63.91
80568;BME280;69922;45.656;25.586;2023-05-07T01:05:25;95387.16;;;9.68;63.92
80568;BME280;69922;45.656;25.586;2023-05-07T01:06:33;95388.28;;;9.67;63.63
80568;BME280;69922;45.656;25.586;2023-05-07T01:07:41;95387.31;;;9.66;63.61
80568;BME280;69922;45.656;25.586;2023-05-07T01:08:49;95391.51;;;9.66;63.74
80568;BME280;69922;45.656;25.586;2023-05-07T01:09:59;95385.45;;;9.64;64.07
80568;BME280;69922;45.656;25.586;2023-05-07T01:11:06;95389.48;;;9.64;64.27
80568;BME280;69922;45.656;25.586;2023-05-07T01:12:13;95387.43;;;9.64;64.46
80568;BME280;69922;45.656;25.586;2023-05-07T01:13:20;95387.74;;;9.62;64.31
80568;BME280;69922;45.656;25.586;2023-05-07T01:14:27;95386.13;;;9.61;64.46
80568;BME280;69922;45.656;25.586;2023-05-07T01:15:34;95391.41;;;9.59;64.33
80568;BME280;69922;45.656;25.586;2023-05-07T01:16:41;95387.95;;;9.58;64.27
80568;BME280;69922;45.656;25.586;2023-05-07T01:17:47;95383.64;;;9.57;64.95
80568;BME280;69922;45.656;25.586;2023-05-07T01:18:53;95387.66;;;9.55;64.48
80568;BME280;69922;45.656;25.586;2023-05-07T01:20:00;95388.98;;;9.53;64.81
80568;BME280;69922;45.656;25.586;2023-05-07T01:21:10;95385.67;;;9.54;65.05
80568;BME280;69922;45.656;25.586;2023-05-07T01:23:25;95378.14;;;9.54;64.86
80568;BME280;69922;45.656;25.586;2023-05-07T01:24:34;95377.14;;;9.55;64.67
80568;BME280;69922;45.656;25.586;2023-05-07T01:25:41;95377.61;;;9.56;64.78
80568;BME280;69922;45.656;25.586;2023-05-07T01:26:47;95380.12;;;9.58;64.78
80568;BME280;69922;45.656;25.586;2023-05-07T01:27:54;95381.79;;;9.58;65.09
80568;BME280;69922;45.656;25.586;2023-05-07T01:29:00;95383.39;;;9.60;64.84
80568;BME280;69922;45.656;25.586;2023-05-07T01:30:09;95384.53;;;9.60;64.86
80568;BME280;69922;45.656;25.586;2023-05-07T01:31:17;95380.84;;;9.60;64.64
80568;BME280;69922;45.656;25.586;2023-05-07T01:32:43;95386.20;;;9.59;64.86
80568;BME280;69922;45.656;25.586;2023-05-07T01:33:52;95387.95;;;9.59;64.50
80568;BME280;69922;45.656;25.586;2023-05-07T01:35:00;95386.31;;;9.59;64.68
80568;BME280;69922;45.656;25.586;2023-05-07T01:36:09;95387.95;;;9.59;64.44
80568;BME280;69922;45.656;25.586;2023-05-07T01:37:17;95383.59;;;9.59;64.67
80568;BME280;69922;45.656;25.586;2023-05-07T01:38:24;95381.56;;;9.59;64.26
80568;BME280;69922;45.656;25.586;2023-05-07T01:39:31;95382.98;;;9.59;64.34
80568;BME280;69922;45.656;25.586;2023-05-07T01:40:38;95383.39;;;9.59;64.52
80568;BME280;69922;45.656;25.586;2023-05-07T01:41:44;95380.03;;;9.59;64.28
80568;BME280;69922;45.656;25.586;2023-05-07T01:42:51;95385.11;;;9.61;64.24
80568;BME280;69922;45.656;25.586;2023-05-07T01:43:59;95382.83;;;9.60;64.10
80568;BME280;69922;45.656;25.586;2023-05-07T01:45:08;95387.27;;;9.62;64.20
80568;BME280;69922;45.656;25.586;2023-05-07T01:46:15;95386.88;;;9.62;64.68
80568;BME280;69922;45.656;25.586;2023-05-07T01:47:24;95384.70;;;9.62;64.73
80568;BME280;69922;45.656;25.586;2023-05-07T01:48:32;95386.49;;;9.62;64.70
80568;BME280;69922;45.656;25.586;2023-05-07T01:49:38;95386.10;;;9.62;64.41
80568;BME280;69922;45.656;25.586;2023-05-07T01:50:45;95379.00;;;9.63;64.43
80568;BME280;69922;45.656;25.586;2023-05-07T01:51:52;95381.73;;;9.63;64.49
80568;BME280;69922;45.656;25.586;2023-05-07T01:52:58;95379.73;;;9.66;64.29
80568;BME280;69922;45.656;25.586;2023-05-07T01:54:06;95378.86;;;9.68;64.33
80568;BME280;69922;45.656;25.586;2023-05-07T01:55:13;95377.54;;;9.71;64.19
80568;BME280;69922;45.656;25.586;2023-05-07T01:56:19;95376.16;;;9.73;64.56
80568;BME280;69922;45.656;25.586;2023-05-07T01:57:26;95376.43;;;9.76;64.70
80568;BME280;69922;45.656;25.586;2023-05-07T01:58:32;95372.29;;;9.75;64.38
80568;BME280;69922;45.656;25.586;2023-05-07T01:59:39;95372.13;;;9.75;64.49
80568;BME280;69922;45.656;25.586;2023-05-07T02:00:46;95370.82;;;9.75;64.52
80568;BME280;69922;45.656;25.586;2023-05-07T02:01:52;95371.23;;;9.74;64.67
80568;BME280;69922;45.656;25.586;2023-05-07T02:02:59;95370.07;;;9.73;64.80
80568;BME280;69922;45.656;25.586;2023-05-07T02:04:05;95367.66;;;9.71;64.71
80568;BME280;69922;45.656;25.586;2023-05-07T02:05:12;95369.23;;;9.70;64.63
80568;BME280;69922;45.656;25.586;2023-05-07T02:06:18;95367.09;;;9.68;64.50
80568;BME280;69922;45.656;25.586;2023-05-07T02:07:25;95367.84;;;9.66;64.93
80568;BME280;69922;45.656;25.586;2023-05-07T02:08:31;95365.75;;;9.65;65.12
80568;BME280;69922;45.656;25.586;2023-05-07T02:09:37;95363.52;;;9.62;65.23
80568;BME280;69922;45.656;25.586;2023-05-07T02:10:43;95366.55;;;9.59;65.27
80568;BME280;69922;45.656;25.586;2023-05-07T02:11:49;95369.73;;;9.56;65.44
80568;BME280;69922;45.656;25.586;2023-05-07T02:12:55;95368.71;;;9.54;65.22
80568;BME280;69922;45.656;25.586;2023-05-07T02:14:01;95359.95;;;9.52;65.32
80568;BME280;69922;45.656;25.586;2023-05-07T02:15:09;95361.99;;;9.51;65.27
80568;BME280;69922;45.656;25.586;2023-05-07T02:16:14;95359.26;;;9.51;65.14
80568;BME280;69922;45.656;25.586;2023-05-07T02:17:21;95362.52;;;9.49;65.22
80568;BME280;69922;45.656;25.586;2023-05-07T02:18:27;95364.14;;;9.50;65.27
80568;BME280;69922;45.656;25.586;2023-05-07T02:19:33;95364.95;;;9.52;65.18
80568;BME280;69922;45.656;25.586;2023-05-07T02:20:39;95367.20;;;9.54;65.43
80568;BME280;69922;45.656;25.586;2023-05-07T02:21:45;95364.33;;;9.55;65.23
80568;BME280;69922;45.656;25.586;2023-05-07T02:22:52;95365.04;;;9.57;65.27
80568;BME280;69922;45.656;25.586;2023-05-07T02:23:58;95363.27;;;9.57;65.25
80568;BME280;69922;45.656;25.586;2023-05-07T02:25:06;95363.51;;;9.59;65.25
80568;BME280;69922;45.656;25.586;2023-05-07T02:26:12;95359.41;;;9.59;65.37
80568;BME280;69922;45.656;25.586;2023-05-07T02:27:18;95360.09;;;9.61;65.25
80568;BME280;69922;45.656;25.586;2023-05-07T02:28:25;95358.52;;;9.62;65.64
80568;BME280;69922;45.656;25.586;2023-05-07T02:29:31;95361.16;;;9.63;65.22
80568;BME280;69922;45.656;25.586;2023-05-07T02:30:38;95358.57;;;9.64;65.45
80568;BME280;69922;45.656;25.586;2023-05-07T02:31:46;95356.96;;;9.65;65.10
80568;BME280;69922;45.656;25.586;2023-05-07T02:32:57;95362.20;;;9.67;65.26
80568;BME280;69922;45.656;25.586;2023-05-07T02:34:03;95361.35;;;9.68;65.38
80568;BME280;69922;45.656;25.586;2023-05-07T02:35:10;95362.23;;;9.70;65.27
80568;BME280;69922;45.656;25.586;2023-05-07T02:36:17;95362.23;;;9.72;65.19
80568;BME280;69922;45.656;25.586;2023-05-07T02:37:24;95359.55;;;9.73;65.32
80568;BME280;69922;45.656;25.586;2023-05-07T02:38:31;95358.75;;;9.74;65.56
80568;BME280;69922;45.656;25.586;2023-05-07T02:39:37;95356.95;;;9.74;65.42
80568;BME280;69922;45.656;25.586;2023-05-07T02:40:43;95358.47;;;9.76;65.45
80568;BME280;69922;45.656;25.586;2023-05-07T02:41:49;95348.94;;;9.78;65.31
80568;BME280;69922;45.656;25.586;2023-05-07T02:42:57;95351.52;;;9.79;65.29
80568;BME280;69922;45.656;25.586;2023-05-07T02:44:03;95352.35;;;9.80;65.07
80568;BME280;69922;45.656;25.586;2023-05-07T02:45:11;95349.83;;;9.81;64.72
80568;BME280;69922;45.656;25.586;2023-05-07T02:46:17;95349.30;;;9.83;64.69
80568;BME280;69922;45.656;25.586;2023-05-07T02:47:24;95352.63;;;9.84;64.51
80568;BME280;69922;45.656;25.586;2023-05-07T02:48:33;95348.85;;;9.85;64.89
80568;BME280;69922;45.656;25.586;2023-05-07T02:49:40;95346.56;;;9.85;65.30
80568;BME280;69922;45.656;25.586;2023-05-07T02:50:46;95340.95;;;9.84;65.33
80568;BME280;69922;45.656;25.586;2023-05-07T02:51:52;95342.71;;;9.84;65.19
80568;BME280;69922;45.656;25.586;2023-05-07T02:52:58;95346.05;;;9.83;64.89
80568;BME280;69922;45.656;25.586;2023-05-07T02:54:04;95348.17;;;9.82;64.94
80568;BME280;69922;45.656;25.586;2023-05-07T02:55:11;95349.25;;;9.82;64.63
80568;BME280;69922;45.656;25.586;2023-05-07T02:56:17;95347.40;;;9.82;65.01
80568;BME280;69922;45.656;25.586;2023-05-07T02:57:23;95351.30;;;9.83;65.06
80568;BME280;69922;45.656;25.586;2023-05-07T02:58:29;95351.05;;;9.82;64.90
80568;BME280;69922;45.656;25.586;2023-05-07T02:59:35;95353.73;;;9.82;65.17
80568;BME280;69922;45.656;25.586;2023-05-07T03:00:43;95349.45;;;9.81;64.89
80568;BME280;69922;45.656;25.586;2023-05-07T03:01:49;95354.48;;;9.81;65.27
80568;BME280;69922;45.656;25.586;2023-05-07T03:02:56;95350.54;;;9.80;65.33
80568;BME280;69922;45.656;25.586;2023-05-07T03:04:03;95350.91;;;9.81;65.49
80568;BME280;69922;45.656;25.586;2023-05-07T03:05:09;95351.33;;;9.83;65.41
80568;BME280;69922;45.656;25.586;2023-05-07T03:06:16;95350.80;;;9.85;65.54
80568;BME280;69922;45.656;25.586;2023-05-07T03:07:23;95354.46;;;9.87;65.78
80568;BME280;69922;45.656;25.586;2023-05-07T03:08:29;95350.33;;;9.86;65.64
80568;BME280;69922;45.656;25.586;2023-05-07T03:09:35;95355.14;;;9.88;65.54
80568;BME280;69922;45.656;25.586;2023-05-07T03:10:41;95356.38;;;9.89;65.68
80568;BME280;69922;45.656;25.586;2023-05-07T03:11:48;95356.11;;;9.89;65.78
80568;BME280;69922;45.656;25.586;2023-05-07T03:12:54;95356.39;;;9.91;65.78
80568;BME280;69922;45.656;25.586;2023-05-07T03:14:00;95353.01;;;9.90;65.96
80568;BME280;69922;45.656;25.586;2023-05-07T03:15:09;95354.17;;;9.90;65.98
80568;BME280;69922;45.656;25.586;2023-05-07T03:16:16;95351.38;;;9.90;65.92
80568;BME280;69922;45.656;25.586;2023-05-07T03:17:24;95355.04;;;9.90;65.81
80568;BME280;69922;45.656;25.586;2023-05-07T03:18:30;95356.88;;;9.91;66.16
80568;BME280;69922;45.656;25.586;2023-05-07T03:19:36;95358.48;;;9.90;66.10
80568;BME280;69922;45.656;25.586;2023-05-07T03:20:43;95360.45;;;9.89;65.98
80568;BME280;69922;45.656;25.586;2023-05-07T03:21:49;95362.21;;;9.89;65.87
80568;BME280;69922;45.656;25.586;2023-05-07T03:22:55;95365.02;;;9.87;65.87
80568;BME280;69922;45.656;25.586;2023-05-07T03:24:02;95366.98;;;9.88;65.38
80568;BME280;69922;45.656;25.586;2023-05-07T03:25:10;95364.36;;;9.86;64.82
80568;BME280;69922;45.656;25.586;2023-05-07T03:26:16;95368.74;;;9.85;64.34
80568;BME280;69922;45.656;25.586;2023-05-07T03:27:22;95369.70;;;9.84;64.38
80568;BME280;69922;45.656;25.586;2023-05-07T03:28:28;95370.31;;;9.82;63.96
80568;BME280;69922;45.656;25.586;2023-05-07T03:29:34;95371.58;;;9.81;63.89
80568;BME280;69922;45.656;25.586;2023-05-07T03:30:41;95375.27;;;9.80;63.77
80568;BME280;69922;45.656;25.586;2023-05-07T03:31:47;95378.32;;;9.80;63.92
80568;BME280;69922;45.656;25.586;2023-05-07T03:32:53;95378.96;;;9.81;63.61
80568;BME280;69922;45.656;25.586;2023-05-07T03:33:59;95381.54;;;9.81;63.38
80568;BME280;69922;45.656;25.586;2023-05-07T03:35:06;95380.47;;;9.81;62.35
80568;BME280;69922;45.656;25.586;2023-05-07T03:36:13;95381.65;;;9.82;62.43
80568;BME280;69922;45.656;25.586;2023-05-07T03:37:19;95380.02;;;9.82;62.17
80568;BME280;69922;45.656;25.586;2023-05-07T03:38:25;95381.95;;;9.83;62.43
80568;BME280;69922;45.656;25.586;2023-05-07T03:39:32;95382.79;;;9.82;62.34
80568;BME280;69922;45.656;25.586;2023-05-07T03:40:38;95388.34;;;9.83;62.21
80568;BME280;69922;45.656;25.586;2023-05-07T03:41:46;95386.84;;;9.84;62.47
80568;BME280;69922;45.656;25.586;2023-05-07T03:42:52;95390.84;;;9.85;62.61
80568;BME280;69922;45.656;25.586;2023-05-07T03:43:58;95393.61;;;9.85;61.63
80568;BME280;69922;45.656;25.586;2023-05-07T03:45:06;95392.65;;;9.85;61.30
80568;BME280;69922;45.656;25.586;2023-05-07T03:46:13;95396.78;;;9.85;61.18
80568;BME280;69922;45.656;25.586;2023-05-07T03:47:19;95398.23;;;9.84;61.04
80568;BME280;69922;45.656;25.586;2023-05-07T03:48:25;95398.19;;;9.84;60.87
80568;BME280;69922;45.656;25.586;2023-05-07T03:49:32;95398.48;;;9.83;60.87
80568;BME280;69922;45.656;25.586;2023-05-07T03:50:39;95400.40;;;9.83;60.91
80568;BME280;69922;45.656;25.586;2023-05-07T03:51:45;95404.61;;;9.82;60.80
80568;BME280;69922;45.656;25.586;2023-05-07T03:52:51;95405.89;;;9.83;60.84
80568;BME280;69922;45.656;25.586;2023-05-07T03:53:58;95404.95;;;9.83;61.08
80568;BME280;69922;45.656;25.586;2023-05-07T03:55:06;95405.41;;;9.85;61.00
80568;BME280;69922;45.656;25.586;2023-05-07T03:56:13;95404.78;;;9.86;61.13
80568;BME280;69922;45.656;25.586;2023-05-07T03:57:19;95406.16;;;9.87;60.99
80568;BME280;69922;45.656;25.586;2023-05-07T03:58:26;95409.92;;;9.88;60.89
80568;BME280;69922;45.656;25.586;2023-05-07T03:59:32;95410.48;;;9.89;60.94
80568;BME280;69922;45.656;25.586;2023-05-07T04:00:38;95408.38;;;9.91;60.92
80568;BME280;69922;45.656;25.586;2023-05-07T04:01:46;95401.58;;;9.92;61.07
80568;BME280;69922;45.656;25.586;2023-05-07T04:02:52;95405.29;;;9.93;61.04
80568;BME280;69922;45.656;25.586;2023-05-07T04:03:59;95403.21;;;9.93;60.82
80568;BME280;69922;45.656;25.586;2023-05-07T04:05:06;95408.67;;;9.94;60.77
80568;BME280;69922;45.656;25.586;2023-05-07T04:06:12;95407.08;;;9.94;60.55
80568;BME280;69922;45.656;25.586;2023-05-07T04:07:19;95414.40;;;9.96;60.33
80568;BME280;69922;45.656;25.586;2023-05-07T04:08:24;95415.48;;;9.98;60.75
80568;BME280;69922;45.656;25.586;2023-05-07T04:09:32;95415.16;;;10.00;60.58
80568;BME280;69922;45.656;25.586;2023-05-07T04:10:38;95418.29;;;10.02;60.35
80568;BME280;69922;45.656;25.586;2023-05-07T04:11:44;95419.23;;;10.05;60.91
80568;BME280;69922;45.656;25.586;2023-05-07T04:12:50;95419.80;;;10.09;60.66
80568;BME280;69922;45.656;25.586;2023-05-07T04:13:56;95418.23;;;10.14;60.76
80568;BME280;69922;45.656;25.586;2023-05-07T04:15:03;95419.13;;;10.19;60.67
80568;BME280;69922;45.656;25.586;2023-05-07T04:16:09;95420.22;;;10.25;60.21
80568;BME280;69922;45.656;25.586;2023-05-07T04:17:16;95415.33;;;10.32;59.90
80568;BME280;69922;45.656;25.586;2023-05-07T04:18:22;95417.09;;;10.39;60.22
80568;BME280;69922;45.656;25.586;2023-05-07T04:19:28;95416.22;;;10.47;59.88
80568;BME280;69922;45.656;25.586;2023-05-07T04:20:36;95412.86;;;10.54;59.45
80568;BME280;69922;45.656;25.586;2023-05-07T04:21:46;95417.13;;;10.63;59.18
80568;BME280;69922;45.656;25.586;2023-05-07T04:22:52;95419.98;;;10.74;58.67
80568;BME280;69922;45.656;25.586;2023-05-07T04:23:58;95418.73;;;10.82;58.33
80568;BME280;69922;45.656;25.586;2023-05-07T04:25:05;95419.77;;;10.92;58.38
80568;BME280;69922;45.656;25.586;2023-05-07T04:26:11;95419.06;;;11.02;58.25
80568;BME280;69922;45.656;25.586;2023-05-07T04:27:17;95421.70;;;11.12;58.22
80568;BME280;69922;45.656;25.586;2023-05-07T04:28:24;95418.98;;;11.20;58.20
80568;BME280;69922;45.656;25.586;2023-05-07T04:29:31;95418.52;;;11.28;58.64
80568;BME280;69922;45.656;25.586;2023-05-07T04:30:37;95420.02;;;11.37;58.66
80568;BME280;69922;45.656;25.586;2023-05-07T04:31:44;95418.71;;;11.47;58.23
80568;BME280;69922;45.656;25.586;2023-05-07T04:32:50;95421.41;;;11.56;57.79
80568;BME280;69922;45.656;25.586;2023-05-07T04:33:57;95424.02;;;11.65;57.22
80568;BME280;69922;45.656;25.586;2023-05-07T04:35:03;95423.08;;;11.73;57.06
80568;BME280;69922;45.656;25.586;2023-05-07T04:36:11;95424.76;;;11.83;56.99
80568;BME280;69922;45.656;25.586;2023-05-07T04:37:17;95426.89;;;11.96;56.32
80568;BME280;69922;45.656;25.586;2023-05-07T04:38:23;95429.52;;;12.11;56.02
80568;BME280;69922;45.656;25.586;2023-05-07T04:39:30;95432.27;;;12.24;54.92
80568;BME280;69922;45.656;25.586;2023-05-07T04:40:38;95433.86;;;12.33;53.13
80568;BME280;69922;45.656;25.586;2023-05-07T04:41:44;95433.16;;;12.41;52.42
80568;BME280;69922;45.656;25.586;2023-05-07T04:42:50;95434.13;;;12.45;52.30
80568;BME280;69922;45.656;25.586;2023-05-07T04:43:57;95431.95;;;12.50;52.64
80568;BME280;69922;45.656;25.586;2023-05-07T04:45:06;95434.58;;;12.54;52.91
80568;BME280;69922;45.656;25.586;2023-05-07T04:46:14;95432.88;;;12.59;51.52
80568;BME280;69922;45.656;25.586;2023-05-07T04:47:21;95433.04;;;12.60;51.04
80568;BME280;69922;45.656;25.586;2023-05-07T04:48:27;95431.77;;;12.60;50.93
80568;BME280;69922;45.656;25.586;2023-05-07T04:49:34;95430.91;;;12.60;50.90
80568;BME280;69922;45.656;25.586;2023-05-07T04:50:41;95429.39;;;12.61;50.87
80568;BME280;69922;45.656;25.586;2023-05-07T04:51:48;95427.41;;;12.61;50.89
80568;BME280;69922;45.656;25.586;2023-05-07T04:52:54;95425.36;;;12.60;50.80
80568;BME280;69922;45.656;25.586;2023-05-07T04:54:01;95423.89;;;12.57;51.32
80568;BME280;69922;45.656;25.586;2023-05-07T04:55:10;95424.13;;;12.57;51.66
80568;BME280;69922;45.656;25.586;2023-05-07T04:56:16;95426.50;;;12.60;51.73
80568;BME280;69922;45.656;25.586;2023-05-07T04:57:24;95424.26;;;12.62;51.90
80568;BME280;69922;45.656;25.586;2023-05-07T04:58:31;95428.63;;;12.65;51.30
80568;BME280;69922;45.656;25.586;2023-05-07T04:59:39;95430.14;;;12.68;50.93
80568;BME280;69922;45.656;25.586;2023-05-07T05:00:45;95428.11;;;12.70;50.89
80568;BME280;69922;45.656;25.586;2023-05-07T05:01:53;95426.07;;;12.74;50.89
80568;BME280;69922;45.656;25.586;2023-05-07T05:03:00;95425.20;;;12.77;50.65
80568;BME280;69922;45.656;25.586;2023-05-07T05:04:07;95424.67;;;12.80;50.48
80568;BME280;69922;45.656;25.586;2023-05-07T05:05:13;95418.70;;;12.83;50.57
80568;BME280;69922;45.656;25.586;2023-05-07T05:06:21;95422.94;;;12.87;50.38
80568;BME280;69922;45.656;25.586;2023-05-07T05:07:27;95421.27;;;12.91;50.14
80568;BME280;69922;45.656;25.586;2023-05-07T05:08:33;95420.81;;;12.94;49.97
80568;BME280;69922;45.656;25.586;2023-05-07T05:09:40;95422.10;;;12.96;50.06
80568;BME280;69922;45.656;25.586;2023-05-07T05:10:46;95422.61;;;12.99;49.91
80568;BME280;69922;45.656;25.586;2023-05-07T05:11:55;95420.45;;;13.01;49.96
80568;BME280;69922;45.656;25.586;2023-05-07T05:13:01;95422.95;;;13.05;50.35
80568;BME280;69922;45.656;25.586;2023-05-07T05:14:07;95423.56;;;13.09;50.36
80568;BME280;69922;45.656;25.586;2023-05-07T05:15:14;95418.08;;;13.10;50.06
80568;BME280;69922;45.656;25.586;2023-05-07T05:16:21;95420.73;;;13.12;50.08
80568;BME280;69922;45.656;25.586;2023-05-07T05:17:28;95425.63;;;13.13;50.23
80568;BME280;69922;45.656;25.586;2023-05-07T05:18:36;95427.83;;;13.13;49.45
80568;BME280;69922;45.656;25.586;2023-05-07T05:19:42;95424.58;;;13.11;48.75
80568;BME280;69922;45.656;25.586;2023-05-07T05:20:48;95428.03;;;13.07;48.89
80568;BME280;69922;45.656;25.586;2023-05-07T05:21:58;95426.34;;;13.00;48.51
80568;BME280;69922;45.656;25.586;2023-05-07T05:23:04;95425.36;;;12.94;48.40
80568;BME280;69922;45.656;25.586;2023-05-07T05:24:12;95431.58;;;12.88;48.72
80568;BME280;69922;45.656;25.586;2023-05-07T05:25:18;95429.98;;;12.82;48.80
80568;BME280;69922;45.656;25.586;2023-05-07T05:26:25;95430.25;;;12.76;48.81
80568;BME280;69922;45.656;25.586;2023-05-07T05:27:31;95427.16;;;12.72;49.09
80568;BME280;69922;45.656;25.586;2023-05-07T05:28:39;95428.70;;;12.69;49.41
80568;BME280;69922;45.656;25.586;2023-05-07T05:29:45;95434.10;;;12.67;49.64
80568;BME280;69922;45.656;25.586;2023-05-07T05:30:52;95434.04;;;12.64;49.70
80568;BME280;69922;45.656;25.586;2023-05-07T05:31:58;95435.95;;;12.61;49.82
80568;BME280;69922;45.656;25.586;2023-05-07T05:33:04;95436.15;;;12.56;49.98
80568;BME280;69922;45.656;25.586;2023-05-07T05:34:11;95441.19;;;12.53;50.46
80568;BME280;69922;45.656;25.586;2023-05-07T05:35:17;95440.48;;;12.49;50.73
80568;BME280;69922;45.656;25.586;2023-05-07T05:36:23;95443.60;;;12.46;50.80
80568;BME280;69922;45.656;25.586;2023-05-07T05:37:30;95441.65;;;12.42;51.29
80568;BME280;69922;45.656;25.586;2023-05-07T05:38:37;95443.20;;;12.40;51.68
80568;BME280;69922;45.656;25.586;2023-05-07T05:39:44;95440.42;;;12.39;51.90
80568;BME280;69922;45.656;25.586;2023-05-07T05:40:50;95439.84;;;12.36;52.07
80568;BME280;69922;45.656;25.586;2023-05-07T05:41:56;95439.72;;;12.37;52.75
80568;BME280;69922;45.656;25.586;2023-05-07T05:43:02;95438.13;;;12.36;53.12
80568;BME280;69922;45.656;25.586;2023-05-07T05:44:09;95434.23;;;12.38;53.46
80568;BME280;69922;45.656;25.586;2023-05-07T05:45:15;95436.02;;;12.40;53.46
80568;BME280;69922;45.656;25.586;2023-05-07T05:46:22;95435.56;;;12.41;53.52
80568;BME280;69922;45.656;25.586;2023-05-07T05:47:29;95434.86;;;12.41;52.90
80568;BME280;69922;45.656;25.586;2023-05-07T05:48:35;95433.34;;;12.43;53.17
80568;BME280;69922;45.656;25.586;2023-05-07T05:49:41;95432.85;;;12.46;53.40
80568;BME280;69922;45.656;25.586;2023-05-07T05:50:49;95434.70;;;12.50;53.88
80568;BME280;69922;45.656;25.586;2023-05-07T05:51:55;95435.20;;;12.54;55.13
80568;BME280;69922;45.656;25.586;2023-05-07T05:53:03;95430.83;;;12.58;55.18